Jrs Mira — V2FS4 — position and weather

sailwx.info

Track history (hours):
 
Tides and Currents Weather Stations Pressure Air Temp Water Temp Dewpoint Dewpoint Depression Visibility Wind Speed Wind Dir Waves Ship Positions

Jrs Mira

Last reported at 2015-Mar-30 23:33 UTC. Time now 2015-Mar-31 00:18 UTC.
Position N 35°55' W 005°18'.

Length 107 m; draft 8.2 m.

Type: Cargo ship. MMSI: 305780000.

Date/timePositionNaut miles runAvg speedWind from/ knotsBaromVisibWave heightAir tempDewpointWater temp
2015-Mar-30 23:33N 35°55' W 005°18'1 1.1
2015-Mar-30 22:33N 35°54' W 005°19'0 0.0
2015-Mar-30 21:33N 35°54' W 005°19'0 0.0
2015-Mar-30 20:32N 35°54' W 005°19'1 0.6
2015-Mar-30 19:33N 35°54' W 005°19'1 1.3
2015-Mar-30 18:33N 35°55' W 005°19'2 2.2
2015-Mar-30 17:33N 35°56' W 005°21'11210.7
2015-Mar-30 07:06N 36°12' W 007°39'710.6
2015-Mar-30 06:25N 36°14' W 007°47'3010.3
2015-Mar-30 03:31N 36°22' W 008°23'1010.1
2015-Mar-30 02:32N 36°24' W 008°35'10 9.9
2015-Mar-30 01:33N 36°27' W 008°47'1010.1
2015-Mar-30 00:33N 36°30' W 008°59'1110.6
2015-Mar-29 23:33N 36°32' W 009°12'1110.5
2015-Mar-29 22:33N 36°38' W 009°23'1110.0
2015-Mar-29 21:28N 36°46' W 009°32'1010.5
2015-Mar-29 20:31N 36°55' W 009°36'1010.8
2015-Mar-29 19:33N 37°05' W 009°39'1110.4
2015-Mar-29 18:31N 37°16' W 009°41'1010.5
2015-Mar-29 17:32N 37°26' W 009°45'1310.5
2015-Mar-29 16:16N 37°39' W 009°48'910.3
2015-Mar-29 15:24N 37°48' W 009°51'910.7
2015-Mar-29 14:32N 37°57' W 009°53'2310.9
2015-Mar-29 12:27N 38°19' W 009°60'1010.6
2015-Mar-29 11:28N 38°29' W 010°03'1110.5
2015-Mar-29 10:27N 38°39' W 010°06'1010.7
2015-Mar-29 09:33N 38°49' W 010°06'  
2015-Mar-25 15:24N 50°33' E 000°07'910.3
2015-Mar-25 14:33N 50°35' E 000°20'9 9.4
2015-Mar-25 13:33N 50°37' E 000°34'9 9.2
2015-Mar-25 12:33N 50°43' E 000°46'10 9.9
2015-Mar-25 11:32N 50°49' E 000°58'1111.6
2015-Mar-25 10:33N 50°56' E 001°12'1313.1
2015-Mar-25 09:33N 51°04' E 001°28'1312.6
2015-Mar-25 08:33N 51°13' E 001°43'1211.9
2015-Mar-25 07:33N 51°23' E 001°52'10 9.9
2015-Mar-25 06:34N 51°31' E 002°02'9 9.2
2015-Mar-25 05:33N 51°38' E 002°11'10 8.9
2015-Mar-25 04:25N 51°46' E 002°22'14110.8
2015-Mar-24 15:21N 53°33' E 004°55'1012.0
2015-Mar-24 14:33N 53°36' E 005°10'1211.6
2015-Mar-24 13:33N 53°40' E 005°28'1110.7
2015-Mar-24 12:33N 53°43' E 005°45'1110.0
2015-Mar-24 11:29N 53°47' E 006°02'43 9.8
2015-Mar-24 07:10N 53°58' E 007°12'711.3
2015-Mar-24 06:33N 53°59' E 007°24'1111.5
2015-Mar-24 05:33N 54°02' E 007°43'1211.7
2015-Mar-24 04:33N 54°01' E 008°02'1310.9
2015-Mar-24 03:22N 53°59' E 008°24'910.5
2015-Mar-24 02:33N 53°57' E 008°38'8 8.4
2015-Mar-24 01:33N 53°51' E 008°47'7 7.5
2015-Mar-24 00:33N 53°51' E 008°60'6 5.7
2015-Mar-23 23:33N 53°54' E 009°09'1 0.8
2015-Mar-23 22:33N 53°54' E 009°10'1 0.9
2015-Mar-23 21:33N 53°55' E 009°11'0 0.0
2015-Mar-23 20:33N 53°55' E 009°11'0 0.0
2015-Mar-23 19:30N 53°55' E 009°11'0 0.0
2015-Mar-23 18:33N 53°55' E 009°11'0 0.5
2015-Mar-23 17:33N 53°55' E 009°11'8 7.7
2015-Mar-23 16:33N 54°02' E 009°18'9 8.0
2015-Mar-23 15:28N 54°10' E 009°24'14 7.0
2015-Mar-23 13:30N 54°18' E 009°43'2 1.9
2015-Mar-23 12:33N 54°20' E 009°44'6 5.6
2015-Mar-23 11:33N 54°21' E 009°53'6 5.6
2015-Mar-23 10:33N 54°22' E 010°03'2 2.1
2015-Mar-23 09:33N 54°22' E 010°06'1 1.4
2015-Mar-23 08:33N 54°22' E 010°09'1 1.2
2015-Mar-23 07:33N 54°23' E 010°10'3 2.7
2015-Mar-23 06:33N 54°25' E 010°12'9 9.4
2015-Mar-23 05:33N 54°32' E 010°24'1110.3
2015-Mar-23 04:31N 54°35' E 010°41'1010.2
2015-Mar-23 03:33N 54°36' E 010°58'1110.6
2015-Mar-23 02:33N 54°35' E 011°17'1110.8
2015-Mar-23 01:33N 54°30' E 011°33'1010.3
2015-Mar-23 00:33N 54°26' E 011°50'1010.0
2015-Mar-22 23:33N 54°27' E 012°07'1010.2
2015-Mar-22 22:33N 54°36' E 012°14'1110.5
2015-Mar-22 21:33N 54°42' E 012°29'3410.6
2015-Mar-22 18:21N 54°56' E 013°23'910.6
2015-Mar-22 17:33N 54°59' E 013°37'1010.6
2015-Mar-22 16:33N 55°02' E 013°55'1210.1
2015-Mar-22 15:20N 55°10' E 014°11'810.1
2015-Mar-22 14:33N 55°16' E 014°20'10 9.8
2015-Mar-22 13:33N 55°23' E 014°31'10 9.8
2015-Mar-22 12:33N 55°29' E 014°45'10 9.9
2015-Mar-22 11:33N 55°34' E 014°60'1010.2
2015-Mar-22 10:33N 55°40' E 015°15'109 9.8
2015-Mar-21 23:27N 57°03' E 017°22'910.4
2015-Mar-21 22:33N 57°11' E 017°28'1110.2
2015-Mar-21 21:29N 57°21' E 017°36'  
Track history (hours):
 
Tides and Currents Weather Stations Pressure Air Temp Water Temp Dewpoint Dewpoint Depression Visibility Wind Speed Wind Dir Waves Ship Positions

Jrs Mira

Last reported at 2015-Mar-30 23:33 UTC. Time now 2015-Mar-31 00:18 UTC.
Position N 35°55' W 005°18'.

Length 107 m; draft 8.2 m.

Type: Cargo ship. MMSI: 305780000.

Date/timePositionNaut miles runAvg speedWind from/ knotsBaromVisibWave heightAir tempDewpointWater temp
2015-Mar-30 23:33N 35°55' W 005°18'1 1.1
2015-Mar-30 22:33N 35°54' W 005°19'0 0.0
2015-Mar-30 21:33N 35°54' W 005°19'0 0.0
2015-Mar-30 20:32N 35°54' W 005°19'1 0.6
2015-Mar-30 19:33N 35°54' W 005°19'1 1.3
2015-Mar-30 18:33N 35°55' W 005°19'2 2.2
2015-Mar-30 17:33N 35°56' W 005°21'11210.7
2015-Mar-30 07:06N 36°12' W 007°39'710.6
2015-Mar-30 06:25N 36°14' W 007°47'3010.3
2015-Mar-30 03:31N 36°22' W 008°23'1010.1
2015-Mar-30 02:32N 36°24' W 008°35'10 9.9
2015-Mar-30 01:33N 36°27' W 008°47'1010.1
2015-Mar-30 00:33N 36°30' W 008°59'1110.6
2015-Mar-29 23:33N 36°32' W 009°12'1110.5
2015-Mar-29 22:33N 36°38' W 009°23'1110.0
2015-Mar-29 21:28N 36°46' W 009°32'1010.5
2015-Mar-29 20:31N 36°55' W 009°36'1010.8
2015-Mar-29 19:33N 37°05' W 009°39'1110.4
2015-Mar-29 18:31N 37°16' W 009°41'1010.5
2015-Mar-29 17:32N 37°26' W 009°45'1310.5
2015-Mar-29 16:16N 37°39' W 009°48'910.3
2015-Mar-29 15:24N 37°48' W 009°51'910.7
2015-Mar-29 14:32N 37°57' W 009°53'2310.9
2015-Mar-29 12:27N 38°19' W 009°60'1010.6
2015-Mar-29 11:28N 38°29' W 010°03'1110.5
2015-Mar-29 10:27N 38°39' W 010°06'1010.7
2015-Mar-29 09:33N 38°49' W 010°06'  
2015-Mar-25 15:24N 50°33' E 000°07'910.3
2015-Mar-25 14:33N 50°35' E 000°20'9 9.4
2015-Mar-25 13:33N 50°37' E 000°34'9 9.2
2015-Mar-25 12:33N 50°43' E 000°46'10 9.9
2015-Mar-25 11:32N 50°49' E 000°58'1111.6
2015-Mar-25 10:33N 50°56' E 001°12'1313.1
2015-Mar-25 09:33N 51°04' E 001°28'1312.6
2015-Mar-25 08:33N 51°13' E 001°43'1211.9
2015-Mar-25 07:33N 51°23' E 001°52'10 9.9
2015-Mar-25 06:34N 51°31' E 002°02'9 9.2
2015-Mar-25 05:33N 51°38' E 002°11'10 8.9
2015-Mar-25 04:25N 51°46' E 002°22'14110.8
2015-Mar-24 15:21N 53°33' E 004°55'1012.0
2015-Mar-24 14:33N 53°36' E 005°10'1211.6
2015-Mar-24 13:33N 53°40' E 005°28'1110.7
2015-Mar-24 12:33N 53°43' E 005°45'1110.0
2015-Mar-24 11:29N 53°47' E 006°02'43 9.8
2015-Mar-24 07:10N 53°58' E 007°12'711.3
2015-Mar-24 06:33N 53°59' E 007°24'1111.5
2015-Mar-24 05:33N 54°02' E 007°43'1211.7
2015-Mar-24 04:33N 54°01' E 008°02'1310.9
2015-Mar-24 03:22N 53°59' E 008°24'910.5
2015-Mar-24 02:33N 53°57' E 008°38'8 8.4
2015-Mar-24 01:33N 53°51' E 008°47'7 7.5
2015-Mar-24 00:33N 53°51' E 008°60'6 5.7
2015-Mar-23 23:33N 53°54' E 009°09'1 0.8
2015-Mar-23 22:33N 53°54' E 009°10'1 0.9
2015-Mar-23 21:33N 53°55' E 009°11'0 0.0
2015-Mar-23 20:33N 53°55' E 009°11'0 0.0
2015-Mar-23 19:30N 53°55' E 009°11'0 0.0
2015-Mar-23 18:33N 53°55' E 009°11'0 0.5
2015-Mar-23 17:33N 53°55' E 009°11'8 7.7
2015-Mar-23 16:33N 54°02' E 009°18'9 8.0
2015-Mar-23 15:28N 54°10' E 009°24'14 7.0
2015-Mar-23 13:30N 54°18' E 009°43'2 1.9
2015-Mar-23 12:33N 54°20' E 009°44'6 5.6
2015-Mar-23 11:33N 54°21' E 009°53'6 5.6
2015-Mar-23 10:33N 54°22' E 010°03'2 2.1
2015-Mar-23 09:33N 54°22' E 010°06'1 1.4
2015-Mar-23 08:33N 54°22' E 010°09'1 1.2
2015-Mar-23 07:33N 54°23' E 010°10'3 2.7
2015-Mar-23 06:33N 54°25' E 010°12'9 9.4
2015-Mar-23 05:33N 54°32' E 010°24'1110.3
2015-Mar-23 04:31N 54°35' E 010°41'1010.2
2015-Mar-23 03:33N 54°36' E 010°58'1110.6
2015-Mar-23 02:33N 54°35' E 011°17'1110.8
2015-Mar-23 01:33N 54°30' E 011°33'1010.3
2015-Mar-23 00:33N 54°26' E 011°50'1010.0
2015-Mar-22 23:33N 54°27' E 012°07'1010.2
2015-Mar-22 22:33N 54°36' E 012°14'1110.5
2015-Mar-22 21:33N 54°42' E 012°29'3410.6
2015-Mar-22 18:21N 54°56' E 013°23'910.6
2015-Mar-22 17:33N 54°59' E 013°37'1010.6
2015-Mar-22 16:33N 55°02' E 013°55'1210.1
2015-Mar-22 15:20N 55°10' E 014°11'810.1
2015-Mar-22 14:33N 55°16' E 014°20'10 9.8
2015-Mar-22 13:33N 55°23' E 014°31'10 9.8
2015-Mar-22 12:33N 55°29' E 014°45'10 9.9
2015-Mar-22 11:33N 55°34' E 014°60'1010.2
2015-Mar-22 10:33N 55°40' E 015°15'109 9.8
2015-Mar-21 23:27N 57°03' E 017°22'910.4
2015-Mar-21 22:33N 57°11' E 017°28'1110.2
2015-Mar-21 21:29N 57°21' E 017°36'  

Dump ship's entire track history